Time;durP1;ratioP1;P1;durP2;ratioP2;P2;SDS_P1;SDS_P2;PMS_P1;PMS_P2;Temp;Humidity;BMP_temperature;BMP_pressure;BME280_temperature;BME280_humidity;BME280_pressure;Samples;Min_cycle;Max_cycle;Signal;HPM_P1;HPM_P2
2021/07/24 00:01:05;;;;;;;11.88;6.93;;;18.30;99.90;;;16.84;100.00;101074.09;3481605;40;101312;-81
2021/07/24 00:03:34;;;;;;;10.13;6.78;;;18.30;99.90;;;16.78;100.00;101055.91;3481301;40;99999;-82
2021/07/24 00:06:01;;;;;;;8.85;6.20;;;18.30;99.90;;;16.80;100.00;101039.50;3488575;40;100174;-83
2021/07/24 00:08:28;;;;;;;9.75;6.80;;;18.40;99.90;;;16.68;100.00;101039.09;3490624;40;101361;-82
2021/07/24 00:10:55;;;;;;;10.98;6.47;;;18.30;99.90;;;16.68;100.00;101035.53;3490480;40;100752;-82
2021/07/24 00:13:23;;;;;;;10.38;6.22;;;18.30;99.90;;;16.67;100.00;101025.75;3487639;40;102420;-81
2021/07/24 00:15:50;;;;;;;12.57;6.57;;;18.30;99.90;;;16.65;100.00;101030.47;3490261;40;100004;-82
2021/07/24 00:18:17;;;;;;;10.40;7.65;;;19.10;99.90;;;16.52;100.00;101026.47;3491508;40;100498;-82
2021/07/24 00:20:45;;;;;;;11.05;7.15;;;18.30;99.90;;;16.42;100.00;101033.13;3489785;40;101373;-82
2021/07/24 00:23:12;;;;;;;9.43;6.95;;;18.20;99.90;;;16.45;100.00;101048.97;3483802;40;100395;-82
2021/07/24 00:25:40;;;;;;;11.10;7.00;;;18.20;99.90;;;16.33;100.00;101063.88;3485869;40;100111;-82
2021/07/24 00:28:08;;;;;;;12.77;6.88;;;19.10;99.90;;;16.14;100.00;101074.13;3503572;40;100110;-82
2021/07/24 00:30:39;;;;;;;13.25;7.57;;;18.10;99.90;;;16.02;100.00;101093.56;3489878;40;100321;-82
2021/07/24 00:33:10;;;;;;;11.05;6.97;;;18.00;99.90;;;16.01;100.00;101124.28;3479194;40;102637;-82
2021/07/24 00:35:38;;;;;;;12.48;7.78;;;17.90;99.90;;;15.99;100.00;101150.59;3489660;40;100053;-83
2021/07/24 00:38:07;;;;;;;11.20;7.03;;;17.80;99.90;;;15.95;100.00;101170.88;3484148;40;100133;-83
2021/07/24 00:40:41;;;;;;;13.35;7.40;;;17.80;99.90;;;15.90;100.00;101194.81;3486159;40;101115;-82
2021/07/24 00:43:11;;;;;;;13.70;7.13;;;17.70;99.90;;;15.82;100.00;101221.81;3486185;40;102156;-81
2021/07/24 00:45:47;;;;;;;11.43;6.85;;;17.60;99.90;;;15.77;100.00;101219.63;3489641;40;100177;-82
2021/07/24 00:48:20;;;;;;;14.45;7.43;;;18.20;99.90;;;15.74;100.00;101172.22;3488932;40;102607;-82
2021/07/24 00:51:06;;;;;;;10.80;7.28;;;18.10;99.90;;;15.69;100.00;101180.00;3490406;40;100089;-83
2021/07/24 00:53:35;;;;;;;8.57;6.45;;;17.40;99.90;;;15.66;100.00;101183.03;3488774;40;101064;-82
2021/07/24 00:56:06;;;;;;;12.45;7.07;;;17.60;99.90;;;15.64;100.00;101201.25;3490152;40;99968;-83
2021/07/24 00:58:37;;;;;;;11.02;6.80;;;17.40;99.90;;;15.59;100.00;101217.06;3490145;40;101900;-83
2021/07/24 01:01:06;;;;;;;7.85;6.85;;;17.80;99.90;;;15.58;100.00;101228.06;3489853;40;101054;-83
2021/07/24 01:03:33;;;;;;;10.25;7.50;;;17.30;99.90;;;15.71;100.00;101247.25;3487986;40;102296;-83
2021/07/24 01:06:01;;;;;;;8.73;6.32;;;18.10;99.90;;;15.80;100.00;101319.97;3485288;40;100062;-81
2021/07/24 01:08:33;;;;;;;9.63;6.63;;;17.20;99.90;;;15.90;100.00;101364.84;3502886;40;103616;-83
2021/07/24 01:11:06;;;;;;;9.40;7.05;;;17.20;99.90;;;15.87;100.00;101352.53;3479844;40;102990;-82
2021/07/24 01:13:35;;;;;;;12.98;7.85;;;17.20;99.90;;;15.78;100.00;101340.03;3485247;40;100644;-82
2021/07/24 01:16:02;;;;;;;8.50;6.90;;;17.20;99.90;;;15.72;100.00;101336.13;3488485;40;100341;-83
2021/07/24 01:18:33;;;;;;;10.65;6.97;;;17.20;99.90;;;15.68;100.00;101332.09;3487412;40;103373;-82
2021/07/24 01:21:05;;;;;;;15.85;7.78;;;17.20;99.90;;;15.61;100.00;101344.53;3478163;40;103296;-83
2021/07/24 01:23:38;;;;;;;10.68;7.05;;;17.20;99.90;;;15.65;100.00;101356.72;3479456;40;100784;-82
2021/07/24 01:26:07;;;;;;;19.15;8.73;;;17.70;99.90;;;15.64;100.00;101371.22;3478472;40;100366;-82
2021/07/24 01:28:37;;;;;;;16.67;10.57;;;18.10;99.90;;;15.60;100.00;101375.22;3478791;40;103027;-83
2021/07/24 01:31:08;;;;;;;17.13;11.50;;;17.10;99.90;;;15.49;100.00;101380.06;3487914;40;101750;-82
2021/07/24 01:33:39;;;;;;;20.35;11.52;;;17.10;99.90;;;15.46;100.00;101398.25;3487146;40;102331;-82
2021/07/24 01:36:08;;;;;;;17.45;10.35;;;16.10;99.90;;;15.59;100.00;101411.31;3479400;40;100170;-82
2021/07/24 01:38:40;;;;;;;11.40;8.48;;;17.30;99.90;;;15.62;100.00;101419.09;3481782;40;101055;-83
2021/07/24 01:41:11;;;;;;;14.73;9.77;;;17.00;99.90;;;15.71;100.00;101417.25;3485096;40;101532;-83
2021/07/24 01:43:40;;;;;;;12.98;9.25;;;17.00;99.90;;;15.77;100.00;101417.44;3489804;40;102811;-82
2021/07/24 01:46:08;;;;;;;13.27;9.32;;;17.00;99.90;;;15.80;100.00;101403.63;3491301;40;100363;-82
2021/07/24 01:49:11;;;;;;;15.63;10.48;;;16.90;99.90;;;15.87;100.00;101384.91;3495683;40;103164;-81
2021/07/24 01:54:44;;;;;;;16.23;9.27;;;17.00;99.90;;;15.92;100.00;101335.84;3490327;40;102181;-83
2021/07/24 01:57:16;;;;;;;13.40;8.38;;;16.90;99.90;;;15.93;100.00;101308.69;3489955;40;100286;-83
2021/07/24 02:00:00;;;;;;;14.57;9.20;;;16.90;99.90;;;15.94;100.00;101291.47;3479906;40;103103;-83
2021/07/24 02:02:32;;;;;;;11.55;6.82;;;16.90;99.90;;;15.89;100.00;101266.84;3480351;40;103574;-83
2021/07/24 02:05:03;;;;;;;13.98;8.02;;;17.00;99.90;;;15.90;100.00;101259.59;3481172;40;101907;-83
2021/07/24 02:07:38;;;;;;;10.38;7.22;;;16.90;99.90;;;15.86;100.00;101244.72;3480106;40;100185;-83
2021/07/24 02:10:09;;;;;;;10.30;7.10;;;17.10;99.90;;;15.95;100.00;101241.84;3480396;40;100458;-83
2021/07/24 02:12:50;;;;;;;16.23;8.60;;;16.90;99.90;;;15.91;100.00;101224.34;3486864;40;103918;-84
2021/07/24 02:15:18;;;;;;;11.93;7.28;;;16.90;99.90;;;15.96;100.00;101215.72;3487483;40;102306;-84
2021/07/24 02:17:50;;;;;;;14.05;7.63;;;16.90;99.90;;;15.91;100.00;101204.59;3482649;40;100794;-83
2021/07/24 02:20:22;;;;;;;16.85;7.90;;;17.40;99.90;;;15.95;100.00;101193.28;3481013;40;102319;-83
2021/07/24 02:22:49;;;;;;;13.27;7.47;;;16.90;99.90;;;16.03;100.00;101173.53;3482054;40;101850;-84
2021/07/24 02:25:19;;;;;;;10.80;7.35;;;16.90;99.90;;;16.04;100.00;101159.88;3480051;40;101706;-83
2021/07/24 02:27:51;;;;;;;17.38;7.65;;;17.10;99.90;;;16.04;100.00;101145.53;3480729;40;100132;-83
2021/07/24 02:30:19;;;;;;;11.32;7.13;;;17.50;99.90;;;16.08;100.00;101134.19;3480188;40;102739;-82
2021/07/24 02:32:46;;;;;;;15.07;7.70;;;16.80;99.90;;;16.07;100.00;101123.59;3494673;40;100655;-84
2021/07/24 02:35:14;;;;;;;10.57;7.20;;;16.90;99.90;;;16.09;100.00;101108.88;3499558;40;99836;-83
2021/07/24 02:38:02;;;;;;;12.00;7.68;;;16.90;99.90;;;16.02;100.00;101089.00;3492133;40;100203;-83
2021/07/24 02:40:31;;;;;;;14.77;7.63;;;16.90;99.90;;;15.96;100.00;101084.28;3491012;40;103321;-83
2021/07/24 02:43:09;;;;;;;17.42;9.95;;;16.80;99.90;;;15.94;100.00;101088.22;3489331;40;103758;-82
2021/07/24 02:45:37;;;;;;;19.00;12.07;;;17.50;99.90;;;15.82;100.00;101077.75;3489886;40;102667;-82
2021/07/24 02:48:05;;;;;;;17.05;11.27;;;17.70;99.90;;;15.72;100.00;101087.06;3492769;40;100267;-84
2021/07/24 02:50:40;;;;;;;16.20;10.48;;;16.90;99.90;;;15.58;100.00;101096.69;3490167;40;103088;-83
2021/07/24 02:53:07;;;;;;;15.13;9.55;;;17.80;99.90;;;15.49;100.00;101121.97;3489421;40;103460;-84
2021/07/24 02:55:37;;;;;;;15.88;9.85;;;16.80;99.90;;;15.44;100.00;101145.91;3489768;40;102193;-82
2021/07/24 02:58:04;;;;;;;12.68;8.10;;;17.30;99.90;;;15.30;100.00;101163.63;3492057;40;100320;-83
2021/07/24 03:00:31;;;;;;;13.88;9.73;;;17.30;99.90;;;15.21;100.00;101193.41;3481994;40;103050;-82
2021/07/24 03:02:58;;;;;;;14.35;8.80;;;16.70;99.90;;;15.11;100.00;101217.81;3482246;40;100114;-83
2021/07/24 03:05:25;;;;;;;14.15;8.27;;;17.30;99.90;;;15.11;100.00;101247.47;3483165;40;100198;-83
2021/07/24 03:07:52;;;;;;;14.65;9.00;;;16.60;99.90;;;15.02;100.00;101272.72;3482889;40;100478;-83
2021/07/24 03:10:19;;;;;;;15.70;9.57;;;17.50;99.90;;;14.98;100.00;101291.06;3482663;40;101162;-83
2021/07/24 03:12:47;;;;;;;11.68;9.00;;;16.50;99.90;;;15.05;100.00;101320.91;3487947;40;101614;-83
2021/07/24 03:15:15;;;;;;;15.32;10.90;;;16.40;99.90;;;15.03;100.00;101341.78;3490897;40;101153;-82
2021/07/24 03:17:42;;;;;;;16.50;10.95;;;16.40;99.90;;;15.02;100.00;101358.97;3491851;40;100254;-83
2021/07/24 03:20:11;;;;;;;18.70;12.25;;;16.30;99.90;;;15.07;100.00;101381.75;3503016;40;101027;-83
2021/07/24 03:22:38;;;;;;;15.82;11.02;;;16.30;99.90;;;15.02;100.00;101391.31;3491777;40;101363;-82
2021/07/24 03:25:08;;;;;;;19.52;12.30;;;16.20;99.90;;;15.11;100.00;101403.81;3492228;40;100745;-83
2021/07/24 03:27:35;;;;;;;17.98;12.05;;;16.20;99.90;;;15.12;100.00;101410.06;3491635;40;100760;-82
2021/07/24 03:30:05;;;;;;;18.73;11.80;;;16.80;99.90;;;15.15;100.00;101415.97;3491138;40;101145;-83
2021/07/24 03:32:32;;;;;;;20.55;12.20;;;16.40;99.90;;;15.18;100.00;101412.97;3492635;40;101582;-82
2021/07/24 03:34:59;;;;;;;20.13;10.05;;;16.20;99.90;;;15.17;100.00;101419.38;3486817;40;100474;-82
2021/07/24 03:37:28;;;;;;;17.63;9.57;;;16.20;99.90;;;15.20;100.00;101413.66;3481657;40;100232;-82
2021/07/24 03:39:55;;;;;;;18.00;10.70;;;16.20;99.90;;;15.19;100.00;101425.44;3485963;40;102975;-83
2021/07/24 03:42:22;;;;;;;15.75;10.98;;;16.20;99.90;;;15.26;100.00;101421.09;3492353;40;101490;-82
2021/07/24 03:44:49;;;;;;;18.75;9.70;;;16.20;99.90;;;15.19;100.00;101427.31;3490082;40;102448;-82
2021/07/24 03:47:18;;;;;;;15.55;10.48;;;16.20;99.90;;;15.17;100.00;101435.53;3491849;40;100111;-83
2021/07/24 03:49:45;;;;;;;16.67;11.57;;;15.70;99.90;;;15.18;100.00;101436.41;3482548;40;100475;-82
2021/07/24 03:52:12;;;;;;;16.05;11.20;;;17.30;99.90;;;15.26;100.00;101437.28;3488591;40;100906;-82
2021/07/24 03:54:39;;;;;;;15.25;10.38;;;16.20;99.90;;;15.25;100.00;101437.44;3497341;40;101304;-83
2021/07/24 03:57:06;;;;;;;15.68;10.65;;;16.30;99.90;;;15.31;100.00;101432.25;3492520;40;100058;-83
2021/07/24 03:59:36;;;;;;;17.35;10.02;;;16.20;99.90;;;15.39;100.00;101428.75;3489644;40;100232;-83
2021/07/24 04:02:07;;;;;;;17.42;9.63;;;16.20;99.90;;;15.48;100.00;101422.38;3492603;40;101464;-84
2021/07/24 04:04:37;;;;;;;12.77;8.77;;;16.20;99.90;;;15.55;100.00;101403.72;3497215;40;102728;-83
2021/07/24 04:07:05;;;;;;;18.42;10.10;;;16.30;99.90;;;15.67;100.00;101386.22;3483184;40;100237;-82
2021/07/24 04:09:34;;;;;;;15.25;9.45;;;16.30;99.90;;;15.76;100.00;101366.34;3487478;40;100720;-83
2021/07/24 04:12:01;;;;;;;13.27;8.55;;;17.20;99.90;;;15.81;100.00;101345.13;3493438;40;101066;-83
2021/07/24 04:14:28;;;;;;;19.02;9.45;;;17.40;99.90;;;15.86;100.00;101307.66;3490796;40;103018;-82
2021/07/24 04:16:55;;;;;;;11.38;8.63;;;17.30;99.90;;;16.03;100.00;101287.75;3493000;40;99957;-83
2021/07/24 04:19:22;;;;;;;13.68;9.43;;;16.50;99.90;;;16.07;100.00;101261.28;3493717;40;101090;-82
2021/07/24 04:21:50;;;;;;;17.52;8.98;;;16.60;99.90;;;16.14;100.00;101238.81;3494304;40;101388;-83
2021/07/24 04:24:18;;;;;;;13.18;8.07;;;16.40;99.90;;;16.16;100.00;101203.53;3484950;40;100315;-82
2021/07/24 04:26:45;;;;;;;16.92;9.90;;;16.70;99.90;;;16.22;100.00;101181.25;3494041;40;100658;-83
2021/07/24 04:29:12;;;;;;;16.35;9.45;;;16.80;99.90;;;16.33;100.00;101156.56;3501902;40;100771;-83
2021/07/24 04:31:39;;;;;;;15.02;8.32;;;17.20;99.90;;;16.47;100.00;101126.13;3499753;40;99817;-82
2021/07/24 04:34:06;;;;;;;14.02;9.35;;;16.90;99.90;;;16.48;100.00;101100.78;3490704;40;101314;-83
2021/07/24 04:36:33;;;;;;;15.32;9.65;;;17.00;99.90;;;16.52;100.00;101060.75;3486820;40;100208;-81
2021/07/24 04:39:01;;;;;;;13.00;8.57;;;17.10;99.90;;;16.50;100.00;101033.91;3486110;40;100896;-83
2021/07/24 04:41:28;;;;;;;16.35;9.05;;;17.10;99.90;;;16.72;100.00;101016.06;3482527;40;103100;-83
2021/07/24 04:43:55;;;;;;;12.15;7.78;;;17.20;99.90;;;16.69;100.00;100991.28;3488430;40;101971;-83
2021/07/24 04:46:23;;;;;;;12.18;7.57;;;17.30;99.90;;;16.68;100.00;100968.81;3497033;40;100072;-83
2021/07/24 04:48:50;;;;;;;12.05;7.57;;;18.50;99.90;;;16.75;100.00;100940.03;3493761;40;102903;-83
2021/07/24 04:51:18;;;;;;;11.32;9.15;;;17.50;99.90;;;16.91;100.00;100930.94;3492734;40;103291;-83
2021/07/24 04:53:48;;;;;;;10.23;7.85;;;17.60;99.90;;;16.86;100.00;100884.69;3491847;40;100437;-82
2021/07/24 04:56:16;;;;;;;15.90;7.97;;;18.60;99.90;;;16.87;100.00;100854.78;3482572;40;100107;-83
2021/07/24 04:58:43;;;;;;;15.15;7.75;;;18.10;99.90;;;17.10;100.00;100848.44;3483763;40;100932;-82
2021/07/24 05:01:12;;;;;;;15.02;8.23;;;17.80;99.90;;;17.37;100.00;100815.31;3493997;40;101021;-82
2021/07/24 05:03:39;;;;;;;12.85;8.50;;;17.90;99.90;;;17.33;100.00;100786.97;3490896;40;100676;-84
2021/07/24 05:06:07;;;;;;;13.40;7.72;;;18.00;99.90;;;17.56;100.00;100762.44;3494193;40;100415;-83
2021/07/24 05:08:34;;;;;;;13.80;8.02;;;18.10;99.90;;;17.56;100.00;100729.97;3491088;40;103303;-83
2021/07/24 05:11:02;;;;;;;14.88;7.57;;;18.20;99.90;;;17.43;100.00;100705.53;3490459;40;100808;-83
2021/07/24 05:13:30;;;;;;;11.93;7.50;;;18.40;99.90;;;17.53;100.00;100692.50;3504230;40;101272;-83
2021/07/24 05:15:58;;;;;;;12.10;7.68;;;18.50;99.90;;;17.91;100.00;100677.69;3505767;40;100152;-83
2021/07/24 05:18:25;;;;;;;9.80;6.53;;;18.70;99.90;;;17.89;100.00;100660.81;3493963;40;101190;-82
2021/07/24 05:20:52;;;;;;;12.35;7.30;;;18.80;99.90;;;18.02;100.00;100640.28;3490973;40;100740;-83
2021/07/24 05:23:19;;;;;;;7.15;6.10;;;18.80;99.90;;;18.12;100.00;100616.38;3492910;40;100340;-83
2021/07/24 05:25:46;;;;;;;15.90;7.68;;;19.00;99.90;;;18.31;100.00;100586.69;3490729;40;100422;-85
2021/07/24 05:28:13;;;;;;;10.00;6.60;;;19.10;99.90;;;17.96;100.00;100566.06;3488631;40;101097;-84
2021/07/24 05:30:41;;;;;;;13.02;7.07;;;19.20;99.90;;;18.32;100.00;100573.97;3490273;40;101489;-83
2021/07/24 05:33:08;;;;;;;15.63;7.05;;;19.60;99.90;;;18.08;100.00;100544.69;3490849;40;100820;-83
2021/07/24 05:35:35;;;;;;;11.70;7.45;;;20.00;99.90;;;18.34;100.00;100541.25;3490873;40;100229;-85
2021/07/24 05:38:02;;;;;;;13.77;7.68;;;19.60;99.90;;;18.69;100.00;100520.34;3490387;40;103572;-83
2021/07/24 05:40:29;;;;;;;14.30;7.97;;;19.70;99.90;;;18.43;100.00;100496.69;3493246;40;100901;-85
2021/07/24 05:43:00;;;;;;;10.25;7.57;;;19.90;99.90;;;18.67;100.00;100485.31;3495255;40;102385;-83
2021/07/24 05:45:28;;;;;;;10.10;6.95;;;20.00;99.90;;;18.38;100.00;100464.81;3502499;40;99941;-83
2021/07/24 05:47:56;;;;;;;11.95;6.93;;;19.50;99.90;;;18.78;100.00;100462.22;3491953;40;101287;-84
2021/07/24 05:50:23;;;;;;;6.65;5.45;;;20.30;99.90;;;18.67;100.00;100447.38;3498701;39;101673;-84
2021/07/24 05:52:50;;;;;;;10.75;6.43;;;20.40;99.90;;;18.73;100.00;100441.13;3489844;40;102385;-85
2021/07/24 05:55:17;;;;;;;9.77;6.90;;;20.50;99.90;;;18.78;100.00;100427.81;3500903;39;100138;-85
2021/07/24 05:57:47;;;;;;;11.32;6.68;;;20.70;99.90;;;19.46;100.00;100422.09;3489981;40;103134;-84
2021/07/24 06:00:15;;;;;;;12.30;6.78;;;20.80;99.90;;;19.25;100.00;100398.78;3492027;40;101190;-84
2021/07/24 06:02:43;;;;;;;10.55;6.38;;;21.00;99.90;;;19.34;100.00;100381.22;3490222;40;100763;-83
2021/07/24 06:05:11;;;;;;;9.13;6.60;;;21.20;99.90;;;19.42;100.00;100369.28;3483108;40;100164;-84
2021/07/24 06:07:38;;;;;;;11.07;6.88;;;21.30;99.90;;;19.46;100.00;100348.81;3494071;40;102514;-83
2021/07/24 06:10:06;;;;;;;8.50;6.75;;;22.40;99.90;;;19.60;100.00;100335.00;3489738;40;103342;-83
2021/07/24 06:12:33;;;;;;;9.57;6.38;;;21.50;99.90;;;19.74;100.00;100322.22;3490230;40;102044;-84
2021/07/24 06:15:01;;;;;;;13.63;7.53;;;21.70;99.90;;;19.86;100.00;100315.03;3492314;40;100003;-83
2021/07/24 06:17:28;;;;;;;12.85;6.90;;;21.80;99.90;;;19.70;100.00;100291.09;3489714;40;100621;-82
2021/07/24 06:19:55;;;;;;;8.07;6.03;;;22.00;99.90;;;20.08;100.00;100288.38;3501438;40;101199;-83
2021/07/24 06:22:24;;;;;;;13.38;6.78;;;21.40;99.90;;;20.44;100.00;100268.66;3491259;40;100682;-84
2021/07/24 06:24:51;;;;;;;10.23;6.05;;;22.30;99.90;;;20.79;100.00;100233.59;3501160;39;100061;-85
2021/07/24 06:27:18;;;;;;;8.27;6.40;;;23.10;99.90;;;20.33;100.00;100212.28;3496662;40;103064;-83
2021/07/24 06:29:45;;;;;;;9.48;6.18;;;22.70;99.90;;;20.37;100.00;100206.22;3488364;40;101378;-84
2021/07/24 06:32:12;;;;;;;10.32;6.57;;;22.80;99.90;;;21.06;100.00;100191.44;3489802;40;101120;-82
2021/07/24 06:34:39;;;;;;;10.70;5.95;;;23.00;99.90;;;20.96;100.00;100157.66;3486814;40;100437;-83
2021/07/24 06:37:07;;;;;;;9.38;5.90;;;23.30;99.90;;;20.93;100.00;100134.47;3490222;40;101327;-82
2021/07/24 06:39:35;;;;;;;6.78;5.35;;;23.30;99.90;;;21.42;100.00;100132.56;3489342;40;101243;-82
2021/07/24 06:42:02;;;;;;;9.20;5.43;;;24.10;99.90;;;21.47;100.00;100109.03;3498041;39;102387;-82
2021/07/24 06:44:29;;;;;;;8.20;4.20;;;23.70;99.90;;;21.12;100.00;100162.50;3492318;40;100335;-83
2021/07/24 06:46:57;;;;;;;9.45;5.10;;;24.30;97.90;;;20.92;100.00;100143.69;3492899;40;100913;-84
2021/07/24 06:49:24;;;;;;;7.43;4.70;;;24.30;95.20;;;21.52;100.00;100138.25;3490360;40;101396;-84
2021/07/24 06:51:51;;;;;;;8.23;4.35;;;25.00;94.80;;;21.23;100.00;100122.81;3489621;40;102019;-84
2021/07/24 06:54:18;;;;;;;7.13;4.95;;;24.10;92.50;;;21.48;100.00;100104.44;3491615;40;100244;-85
2021/07/24 06:56:47;;;;;;;7.85;4.72;;;24.30;92.00;;;21.70;100.00;100091.06;3493592;40;100912;-83
2021/07/24 06:59:14;;;;;;;7.22;4.57;;;24.40;91.50;;;21.62;100.00;100081.38;3487571;40;103346;-82
2021/07/24 07:01:41;;;;;;;6.13;4.22;;;24.50;91.10;;;21.74;100.00;100065.03;3499850;40;100551;-82
2021/07/24 07:04:09;;;;;;;9.80;5.32;;;24.80;90.20;;;22.16;100.00;100060.28;3504178;39;101153;-85
2021/07/24 07:06:36;;;;;;;6.95;4.40;;;24.80;89.70;;;22.35;100.00;100045.47;3489946;40;101434;-82
2021/07/24 07:09:03;;;;;;;8.20;4.05;;;25.00;89.80;;;22.15;100.00;100050.47;3491687;40;100920;-83
2021/07/24 07:11:30;;;;;;;7.63;3.92;;;25.20;86.30;;;22.07;100.00;100021.69;3487815;40;100518;-83
2021/07/24 07:13:58;;;;;;;7.65;4.57;;;25.30;79.00;;;21.72;100.00;100015.44;3488233;40;100088;-82
2021/07/24 07:16:25;;;;;;;6.75;4.15;;;25.50;73.60;;;21.97;100.00;100016.00;3487102;40;101201;-82
2021/07/24 07:18:52;;;;;;;5.47;3.88;;;25.30;73.70;;;22.40;100.00;100022.91;3490240;40;101106;-82
2021/07/24 07:21:20;;;;;;;9.20;3.85;;;25.40;75.70;;;22.03;100.00;100020.50;3495265;40;101031;-83
2021/07/24 07:23:47;;;;;;;3.85;3.42;;;25.30;72.40;;;22.07;100.00;100009.97;3490305;40;100246;-83
2021/07/24 07:26:14;;;;;;;4.10;2.97;;;25.20;72.00;;;22.03;100.00;100017.78;3490627;40;100371;-83
2021/07/24 07:28:41;;;;;;;6.35;4.15;;;25.40;71.40;;;22.31;100.00;100014.28;3490451;40;100946;-82
2021/07/24 07:31:09;;;;;;;7.28;3.95;;;25.40;71.80;;;22.54;100.00;100010.66;3484849;40;100387;-84
2021/07/24 07:33:36;;;;;;;8.23;4.60;;;25.50;71.50;;;22.20;100.00;100012.44;3488797;40;100047;-83
2021/07/24 07:36:03;;;;;;;7.05;4.18;;;25.60;70.60;;;22.82;100.00;100005.25;3487033;40;103023;-83
2021/07/24 07:38:30;;;;;;;7.35;4.35;;;25.80;71.30;;;23.34;100.00;99999.59;3486172;40;103043;-84
2021/07/24 07:40:57;;;;;;;6.13;3.63;;;26.00;72.00;;;22.90;100.00;99996.63;3483486;40;100760;-85
2021/07/24 07:43:24;;;;;;;4.85;3.65;;;26.20;70.00;;;23.51;100.00;99996.84;3502938;40;100624;-81
2021/07/24 07:45:51;;;;;;;5.78;3.88;;;26.40;70.40;;;23.86;100.00;99985.66;3504848;39;100070;-84
2021/07/24 07:48:19;;;;;;;6.35;4.55;;;26.90;70.00;;;22.86;100.00;99986.47;3482842;40;101237;-84
2021/07/24 07:50:47;;;;;;;6.15;4.07;;;27.50;66.60;;;22.87;100.00;99986.22;3488937;40;100583;-82
2021/07/24 07:53:14;;;;;;;5.10;3.80;;;26.90;65.10;;;22.73;100.00;99987.59;3487051;40;100104;-83
2021/07/24 07:55:41;;;;;;;11.30;4.38;;;27.20;64.60;;;22.73;100.00;99990.31;3488237;40;100838;-84
2021/07/24 07:58:14;;;;;;;7.05;4.45;;;27.20;63.90;;;23.32;100.00;99993.53;3482522;40;103217;-83
2021/07/24 08:00:41;;;;;;;6.40;4.03;;;27.30;64.50;;;23.01;100.00;99985.91;3488373;40;100447;-83
2021/07/24 08:03:08;;;;;;;6.22;3.38;;;27.40;64.00;;;23.95;100.00;99984.13;3488281;40;100189;-83
2021/07/24 08:05:37;;;;;;;4.82;3.15;;;28.20;65.50;;;23.13;100.00;99992.09;3485239;40;103139;-83
2021/07/24 08:08:05;;;;;;;5.80;3.42;;;27.50;62.40;;;23.95;100.00;99992.31;3485746;40;103450;-84
2021/07/24 08:10:33;;;;;;;4.60;3.25;;;27.60;63.70;;;24.31;100.00;99985.44;3486460;40;100514;-83
2021/07/24 08:13:12;;;;;;;7.28;3.78;;;27.80;64.00;;;24.33;100.00;99981.38;3486649;40;99976;-83
2021/07/24 08:15:39;;;;;;;5.53;3.58;;;28.00;63.60;;;23.90;100.00;99982.13;3488105;40;100967;-83
2021/07/24 08:18:06;;;;;;;8.32;4.25;;;28.30;61.40;;;23.90;100.00;99982.13;3485523;40;103035;-84
2021/07/24 08:20:34;;;;;;;6.18;4.47;;;28.70;60.50;;;23.73;100.00;99983.28;3485798;40;100385;-85
2021/07/24 08:23:02;;;;;;;5.07;3.35;;;28.50;59.50;;;24.43;100.00;99974.34;3486088;40;100151;-86
2021/07/24 08:25:29;;;;;;;5.80;4.25;;;28.50;59.90;;;25.40;100.00;99965.97;3485490;40;103105;-83
2021/07/24 08:28:01;;;;;;;5.43;3.45;;;28.50;59.80;;;24.48;100.00;99971.69;3492993;39;103416;-84
2021/07/24 08:30:28;;;;;;;8.00;3.67;;;28.80;59.30;;;23.97;100.00;99965.56;3495572;39;101215;-82
2021/07/24 08:32:55;;;;;;;9.48;4.47;;;29.10;58.00;;;23.73;100.00;99981.38;3486514;40;100671;-83
2021/07/24 08:35:22;;;;;;;4.07;3.28;;;29.10;56.90;;;24.25;100.00;99979.06;3492974;40;102990;-84
2021/07/24 08:37:49;;;;;;;7.65;3.85;;;29.90;57.50;;;24.34;100.00;99969.34;3484687;40;103008;-83
2021/07/24 08:40:18;;;;;;;4.03;3.03;;;29.80;57.20;;;25.41;100.00;99959.41;3486476;40;102125;-83
2021/07/24 08:42:46;;;;;;;5.97;3.63;;;29.70;56.80;;;25.26;100.00;99959.28;3490492;40;100156;-82
2021/07/24 08:45:16;;;;;;;5.88;3.30;;;29.70;56.70;;;25.26;100.00;99957.38;3486802;40;101167;-85
2021/07/24 08:47:43;;;;;;;4.93;3.88;;;30.00;56.30;;;24.67;100.00;99962.84;3484679;40;102684;-83
2021/07/24 08:50:13;;;;;;;3.72;2.58;;;30.20;55.50;;;24.26;100.00;99967.03;3483406;40;102362;-83
2021/07/24 08:52:42;;;;;;;5.30;3.53;;;30.00;54.40;;;24.13;100.00;99974.78;3487184;40;100032;-83
2021/07/24 08:55:11;;;;;;;5.35;3.13;;;30.50;54.40;;;24.96;100.00;99963.44;3486181;40;103149;-83
2021/07/24 08:57:42;;;;;;;4.57;2.92;;;30.10;54.70;;;24.97;100.00;99958.78;3486630;40;100252;-82
2021/07/24 09:00:13;;;;;;;5.68;3.38;;;30.70;55.20;;;24.81;100.00;99965.19;3487510;40;100471;-84
2021/07/24 09:02:43;;;;;;;7.20;3.83;;;30.30;54.40;;;25.16;100.00;99960.03;3486128;40;100197;-83
2021/07/24 09:05:13;;;;;;;4.82;3.53;;;30.30;53.70;;;25.04;100.00;99954.75;3491303;40;103125;-81
2021/07/24 09:07:43;;;;;;;4.13;3.25;;;30.40;53.60;;;25.60;100.00;99952.41;3485186;40;101108;-83
2021/07/24 09:10:12;;;;;;;7.80;3.67;;;30.90;54.20;;;25.10;100.00;99950.13;3487210;40;100419;-84
2021/07/24 09:12:44;;;;;;;8.50;3.70;;;30.60;52.90;;;25.53;100.00;99940.84;3486625;40;100882;-84
2021/07/24 09:15:15;;;;;;;5.22;3.28;;;30.70;53.10;;;25.68;100.00;99940.16;3484233;40;102685;-84
2021/07/24 09:17:42;;;;;;;3.63;3.08;;;30.80;52.90;;;24.87;100.00;99945.78;3486161;40;101087;-82
2021/07/24 09:20:11;;;;;;;4.47;3.70;;;30.80;51.40;;;25.99;100.00;99944.69;3485756;40;100407;-81
2021/07/24 09:22:41;;;;;;;4.60;3.15;;;30.80;52.10;;;26.02;100.00;99935.94;3484638;40;100267;-83
2021/07/24 09:25:12;;;;;;;5.53;3.70;;;30.80;52.10;;;26.82;100.00;99934.53;3487302;40;101038;-82
2021/07/24 09:27:43;;;;;;;4.57;3.38;;;30.90;52.50;;;26.19;100.00;99940.41;3486491;40;101398;-82
2021/07/24 09:30:32;;;;;;;4.72;3.42;;;31.10;52.40;;;27.34;100.00;99930.66;3486754;40;100768;-82
2021/07/24 09:33:05;;;;;;;4.90;4.32;;;31.20;52.60;;;27.08;100.00;99934.53;3493172;40;100510;-80
2021/07/24 09:35:39;;;;;;;3.85;2.65;;;31.50;52.80;;;26.41;100.00;99933.63;3484721;40;101105;-81
2021/07/24 09:38:08;;;;;;;6.22;3.63;;;31.70;51.50;;;26.37;100.00;99932.50;3486773;40;100930;-81
2021/07/24 09:40:36;;;;;;;4.97;3.00;;;32.00;50.60;;;26.51;100.00;99941.06;3486108;40;100310;-82
2021/07/24 09:43:29;;;;;;;5.88;3.40;;;32.00;50.10;;;27.04;100.00;99941.69;3489824;40;100198;-83
2021/07/24 09:46:10;;;;;;;5.05;2.60;;;32.20;49.80;;;27.06;100.00;99934.84;3504221;39;100257;-84
2021/07/24 09:48:38;;;;;;;3.75;2.92;;;32.20;50.00;;;25.83;100.00;99940.25;3485834;40;100304;-84
2021/07/24 09:51:05;;;;;;;5.70;3.47;;;32.60;48.50;;;25.94;100.00;99936.47;3486234;40;100673;-84
2021/07/24 09:53:37;;;;;;;5.45;3.15;;;32.30;48.10;;;26.03;100.00;99931.28;3486694;40;100136;-83
2021/07/24 09:56:06;;;;;;;5.05;3.67;;;32.20;48.00;;;26.11;100.00;99938.97;3485099;40;100740;-83
2021/07/24 09:58:34;;;;;;;3.95;3.05;;;32.10;48.00;;;26.15;100.00;99937.34;3486279;40;103147;-81
2021/07/24 10:01:07;;;;;;;3.33;2.72;;;32.10;47.80;;;27.08;100.00;99940.03;3486881;40;100664;-83
2021/07/24 10:03:37;;;;;;;6.28;3.35;;;32.20;48.70;;;27.05;100.00;99943.34;3485653;40;100464;-82
2021/07/24 10:06:11;;;;;;;3.67;2.83;;;32.20;48.60;;;27.22;100.00;99935.63;3486208;40;100845;-83
2021/07/24 10:08:41;;;;;;;4.20;3.17;;;32.40;48.30;;;27.00;100.00;99935.91;3486724;40;101296;-84